Time;durP1;ratioP1;P1;durP2;ratioP2;P2;SDS_P1;SDS_P2;PMS_P1;PMS_P2;Temp;Humidity;BMP_temperature;BMP_pressure;BME280_temperature;BME280_humidity;BME280_pressure;Samples;Min_cycle;Max_cycle;Signal;HPM_P1;HPM_P2
2022/06/01 00:01:45;;;;;;;6.67;6.13;;;;;;;;;;4979530;28;20406;-58
2022/06/01 00:04:11;;;;;;;7.10;6.60;;;;;;;;;;4979326;28;20416;-58
2022/06/01 00:06:37;;;;;;;7.97;7.20;;;;;;;;;;4978876;28;20400;-58
2022/06/01 00:09:04;;;;;;;7.73;6.93;;;;;;;;;;4979406;28;20500;-57
2022/06/01 00:11:30;;;;;;;8.20;7.50;;;;;;;;;;4982517;28;20405;-58
2022/06/01 00:13:56;;;;;;;8.93;8.03;;;;;;;;;;4981995;28;20491;-58
2022/06/01 00:16:23;;;;;;;7.90;7.10;;;;;;;;;;4981982;28;20408;-58
2022/06/01 00:18:49;;;;;;;8.10;7.40;;;;;;;;;;4982726;28;20421;-58
2022/06/01 00:21:15;;;;;;;8.37;7.57;;;;;;;;;;4982287;28;20451;-58
2022/06/01 00:23:41;;;;;;;9.93;8.67;;;;;;;;;;4981597;28;20901;-58
2022/06/01 00:26:07;;;;;;;9.67;8.83;;;;;;;;;;4964457;28;20433;-58
2022/06/01 00:28:33;;;;;;;8.60;7.80;;;;;;;;;;4981327;28;20508;-58
2022/06/01 00:30:59;;;;;;;8.90;8.00;;;;;;;;;;4980718;28;20408;-58
2022/06/01 00:33:25;;;;;;;8.10;7.13;;;;;;;;;;4980761;28;20452;-58
2022/06/01 00:35:51;;;;;;;9.13;8.30;;;;;;;;;;4981097;28;20456;-58
2022/06/01 00:38:17;;;;;;;9.00;7.80;;;;;;;;;;4980410;28;20405;-58
2022/06/01 00:40:44;;;;;;;8.63;7.70;;;;;;;;;;4980513;28;20500;-58
2022/06/01 00:43:18;;;;;;;9.50;8.60;;;;;;;;;;4980481;28;20415;-58
2022/06/01 00:45:44;;;;;;;8.90;8.10;;;;;;;;;;4980895;28;20450;-58
2022/06/01 00:48:10;;;;;;;8.60;7.70;;;;;;;;;;4980400;28;20774;-58
2022/06/01 00:50:39;;;;;;;8.93;8.10;;;;;;;;;;4980096;28;20491;-58
2022/06/01 00:53:13;;;;;;;9.60;8.40;;;;;;;;;;4980251;28;20546;-58
2022/06/01 00:55:45;;;;;;;10.07;9.07;;;;;;;;;;4980799;28;20423;-58
2022/06/01 00:58:14;;;;;;;10.57;9.57;;;;;;;;;;4980452;28;20885;-58
2022/06/01 01:00:42;;;;;;;9.30;8.47;;;;;;;;;;4979999;28;20468;-58
2022/06/01 01:03:10;;;;;;;9.37;8.50;;;;;;;;;;4978865;28;20924;-58
2022/06/01 01:05:37;;;;;;;8.97;8.00;;;;;;;;;;4979383;28;20444;-58
2022/06/01 01:08:05;;;;;;;9.87;8.87;;;;;;;;;;4979146;28;20417;-58
2022/06/01 01:10:31;;;;;;;10.30;9.20;;;;;;;;;;4979863;28;20429;-58
2022/06/01 01:13:01;;;;;;;11.30;8.80;;;;;;;;;;4979366;28;20460;-58
2022/06/01 01:15:41;;;;;;;12.00;8.57;;;;;;;;;;4979573;28;20412;-57
2022/06/01 01:18:10;;;;;;;10.17;9.13;;;;;;;;;;4979832;28;20397;-57
2022/06/01 01:20:42;;;;;;;10.10;9.03;;;;;;;;;;4978152;28;20784;-58
2022/06/01 01:23:14;;;;;;;10.70;9.60;;;;;;;;;;4978720;28;20397;-57
2022/06/01 01:25:40;;;;;;;10.90;9.90;;;;;;;;;;4978597;28;20401;-56
2022/06/01 01:28:07;;;;;;;10.80;9.70;;;;;;;;;;4978260;28;20827;-57
2022/06/01 01:30:42;;;;;;;12.87;10.10;;;;;;;;;;4978929;28;20482;-58
2022/06/01 01:33:12;;;;;;;10.20;9.20;;;;;;;;;;4977702;28;20463;-58
2022/06/01 01:35:39;;;;;;;11.03;9.30;;;;;;;;;;4977992;28;20421;-58
2022/06/01 01:38:09;;;;;;;10.70;9.30;;;;;;;;;;4979424;28;20484;-58
2022/06/01 01:40:35;;;;;;;11.07;9.97;;;;;;;;;;4979023;28;20520;-58
2022/06/01 01:43:02;;;;;;;11.93;10.57;;;;;;;;;;4978776;28;20869;-56
2022/06/01 01:45:33;;;;;;;12.57;9.20;;;;;;;;;;4978878;28;20420;-58
2022/06/01 01:47:59;;;;;;;12.20;10.47;;;;;;;;;;4978649;28;20409;-58
2022/06/01 01:50:25;;;;;;;11.50;10.30;;;;;;;;;;4978582;28;20488;-58
2022/06/01 01:52:52;;;;;;;10.90;9.80;;;;;;;;;;4978666;28;20445;-57
2022/06/01 01:55:39;;;;;;;12.00;10.80;;;;;;;;;;4978068;28;20409;-58
2022/06/01 01:58:22;;;;;;;10.10;9.20;;;;;;;;;;4977485;28;20467;-58
2022/06/01 02:00:51;;;;;;;10.97;9.87;;;;;;;;;;4977449;28;20871;-58
2022/06/01 02:03:22;;;;;;;10.97;9.60;;;;;;;;;;4977862;28;20409;-57
2022/06/01 02:06:05;;;;;;;14.10;10.97;;;;;;;;;;4978022;28;20417;-58
2022/06/01 02:08:31;;;;;;;14.97;11.63;;;;;;;;;;4977771;28;20409;-57
2022/06/01 02:13:55;;;;;;;12.57;11.27;;;;;;;;;;4977064;28;20455;-57
2022/06/01 02:16:24;;;;;;;11.30;10.30;;;;;;;;;;4977820;28;20400;-57
2022/06/01 02:18:51;;;;;;;12.27;10.67;;;;;;;;;;4977211;28;20905;-58
2022/06/01 02:21:19;;;;;;;14.40;11.90;;;;;;;;;;4976702;28;20405;-58
2022/06/01 02:23:47;;;;;;;12.53;10.40;;;;;;;;;;4977260;28;20943;-58
2022/06/01 02:26:13;;;;;;;13.20;11.00;;;;;;;;;;4977168;28;20449;-58
2022/06/01 02:28:42;;;;;;;14.83;12.40;;;;;;;;;;4977040;28;20407;-58
2022/06/01 02:31:08;;;;;;;16.30;12.77;;;;;;;;;;4976055;28;20467;-58
2022/06/01 02:33:35;;;;;;;14.03;12.47;;;;;;;;;;4975482;28;20459;-58
2022/06/01 02:36:03;;;;;;;18.77;12.40;;;;;;;;;;4976789;28;20409;-58
2022/06/01 02:38:31;;;;;;;14.77;12.40;;;;;;;;;;4974973;28;20408;-58
2022/06/01 02:40:57;;;;;;;19.77;13.33;;;;;;;;;;4976119;28;20425;-58
2022/06/01 02:43:23;;;;;;;15.20;13.40;;;;;;;;;;4976258;28;20468;-58
2022/06/01 02:45:49;;;;;;;16.20;13.13;;;;;;;;;;4976053;28;20495;-58
2022/06/01 02:48:15;;;;;;;13.93;12.60;;;;;;;;;;4975661;28;20779;-58
2022/06/01 02:50:41;;;;;;;14.97;13.00;;;;;;;;;;4975556;28;20433;-58
2022/06/01 02:53:07;;;;;;;16.33;13.20;;;;;;;;;;4975457;28;20452;-58
2022/06/01 02:55:33;;;;;;;18.10;13.60;;;;;;;;;;4976103;28;20433;-58
2022/06/01 02:57:59;;;;;;;19.53;13.50;;;;;;;;;;4975202;28;20460;-58
2022/06/01 03:00:27;;;;;;;15.57;13.93;;;;;;;;;;4975098;28;20924;-58
2022/06/01 03:02:55;;;;;;;15.13;13.53;;;;;;;;;;4975157;28;20436;-58
2022/06/01 03:05:22;;;;;;;16.17;13.20;;;;;;;;;;4975940;28;20441;-58
2022/06/01 03:07:48;;;;;;;16.40;13.20;;;;;;;;;;4975637;28;20895;-58
2022/06/01 03:10:14;;;;;;;16.20;14.07;;;;;;;;;;4975690;28;20448;-58
2022/06/01 03:12:40;;;;;;;20.07;14.47;;;;;;;;;;4975643;28;20484;-58
2022/06/01 03:15:08;;;;;;;17.23;13.70;;;;;;;;;;4975660;28;20405;-58
2022/06/01 03:17:34;;;;;;;18.40;15.53;;;;;;;;;;4975363;28;20403;-58
2022/06/01 03:20:01;;;;;;;21.27;15.73;;;;;;;;;;4975433;28;20421;-57
2022/06/01 03:22:27;;;;;;;17.10;15.27;;;;;;;;;;4975267;28;20405;-58
2022/06/01 03:24:53;;;;;;;18.80;14.93;;;;;;;;;;4975066;28;20420;-58
2022/06/01 03:27:19;;;;;;;19.17;15.37;;;;;;;;;;4975291;28;20401;-57
2022/06/01 03:29:45;;;;;;;16.93;14.77;;;;;;;;;;4976045;28;20429;-57
2022/06/01 03:32:11;;;;;;;19.77;16.37;;;;;;;;;;4975098;28;20499;-57
2022/06/01 03:34:38;;;;;;;19.60;15.70;;;;;;;;;;4975051;28;20431;-58
2022/06/01 03:37:04;;;;;;;18.03;15.80;;;;;;;;;;4975348;28;20401;-57
2022/06/01 03:39:30;;;;;;;18.93;16.33;;;;;;;;;;4974358;28;20431;-58
2022/06/01 03:41:56;;;;;;;20.10;16.43;;;;;;;;;;4974930;28;20416;-57
2022/06/01 03:47:11;;;;;;;17.50;15.50;;;;;;;;;;4978650;28;20459;-58
2022/06/01 03:49:37;;;;;;;20.70;16.57;;;;;;;;;;4978814;28;20893;-58
2022/06/01 03:52:04;;;;;;;21.77;17.37;;;;;;;;;;4978795;28;20401;-58
2022/06/01 03:54:30;;;;;;;20.40;15.87;;;;;;;;;;4978868;28;20404;-58
2022/06/01 03:56:56;;;;;;;19.43;15.80;;;;;;;;;;4979039;28;20405;-58
2022/06/01 03:59:22;;;;;;;18.47;15.97;;;;;;;;;;4978596;28;20503;-58
2022/06/01 04:01:48;;;;;;;24.20;18.20;;;;;;;;;;4978669;28;20440;-57
2022/06/01 04:04:14;;;;;;;21.43;17.57;;;;;;;;;;4978516;28;20412;-58
2022/06/01 04:06:40;;;;;;;18.80;16.80;;;;;;;;;;4978343;28;20412;-58
2022/06/01 04:09:06;;;;;;;22.90;17.60;;;;;;;;;;4978602;28;20864;-57
2022/06/01 04:11:32;;;;;;;18.57;15.83;;;;;;;;;;4978179;28;20409;-58
2022/06/01 04:13:58;;;;;;;21.57;16.13;;;;;;;;;;4978143;28;20456;-57
2022/06/01 04:16:24;;;;;;;16.77;14.03;;;;;;;;;;4978438;28;20440;-57
2022/06/01 04:18:50;;;;;;;25.03;17.13;;;;;;;;;;4978598;28;20449;-56
2022/06/01 04:21:19;;;;;;;22.70;16.33;;;;;;;;;;4978436;28;20393;-57
2022/06/01 04:23:45;;;;;;;22.73;15.70;;;;;;;;;;4978040;28;20412;-58
2022/06/01 04:26:16;;;;;;;20.17;15.20;;;;;;;;;;4978499;28;20524;-58
2022/06/01 04:28:42;;;;;;;20.80;15.07;;;;;;;;;;4978605;28;20468;-57
2022/06/01 04:31:08;;;;;;;17.30;13.47;;;;;;;;;;4978330;28;20472;-58
2022/06/01 04:33:34;;;;;;;19.47;15.10;;;;;;;;;;4977628;28;20518;-58
2022/06/01 04:35:59;;;;;;;20.23;15.20;;;;;;;;;;4978294;28;20493;-58
2022/06/01 04:38:26;;;;;;;17.23;14.20;;;;;;;;;;4978009;28;20443;-56
2022/06/01 04:40:53;;;;;;;18.30;13.50;;;;;;;;;;4977714;28;20407;-57
2022/06/01 04:43:21;;;;;;;18.77;14.80;;;;;;;;;;4977497;28;20415;-58
2022/06/01 04:45:49;;;;;;;18.00;14.90;;;;;;;;;;4977281;28;20452;-58
2022/06/01 04:48:15;;;;;;;21.53;14.53;;;;;;;;;;4977806;28;20503;-58
2022/06/01 04:50:44;;;;;;;18.50;16.13;;;;;;;;;;4977584;28;20936;-58
2022/06/01 04:53:14;;;;;;;19.90;14.10;;;;;;;;;;4977419;28;20518;-57
2022/06/01 04:55:40;;;;;;;20.53;15.60;;;;;;;;;;4977311;28;20488;-58
2022/06/01 04:58:06;;;;;;;18.30;14.37;;;;;;;;;;4977219;28;20419;-58
2022/06/01 05:00:36;;;;;;;20.60;14.17;;;;;;;;;;4977308;28;20429;-58
2022/06/01 05:03:02;;;;;;;19.03;14.50;;;;;;;;;;4976992;28;20451;-57
2022/06/01 05:05:28;;;;;;;16.43;13.53;;;;;;;;;;4977332;28;20409;-58
2022/06/01 05:07:54;;;;;;;23.80;14.60;;;;;;;;;;4977034;28;20411;-57
2022/06/01 05:10:23;;;;;;;16.73;14.07;;;;;;;;;;4976841;28;20432;-58
2022/06/01 05:12:50;;;;;;;16.20;12.93;;;;;;;;;;4976307;28;20467;-58
2022/06/01 05:15:16;;;;;;;16.97;14.33;;;;;;;;;;4977031;28;20850;-56
2022/06/01 05:17:42;;;;;;;17.13;14.17;;;;;;;;;;4976911;28;20413;-57
2022/06/01 05:20:09;;;;;;;21.20;15.23;;;;;;;;;;4977149;28;20479;-58
2022/06/01 05:22:35;;;;;;;21.20;13.97;;;;;;;;;;4976309;28;20409;-58
2022/06/01 05:25:01;;;;;;;17.73;13.83;;;;;;;;;;4976932;28;20440;-58
2022/06/01 05:27:27;;;;;;;18.97;14.20;;;;;;;;;;4976911;28;20420;-58
2022/06/01 05:29:54;;;;;;;19.50;15.17;;;;;;;;;;4976430;28;20429;-58
2022/06/01 05:32:20;;;;;;;18.67;13.10;;;;;;;;;;4976575;28;20455;-58
2022/06/01 05:34:47;;;;;;;16.80;13.93;;;;;;;;;;4976552;28;20401;-58
2022/06/01 05:37:12;;;;;;;20.23;14.20;;;;;;;;;;4976619;28;20406;-58
2022/06/01 05:39:38;;;;;;;28.17;15.80;;;;;;;;;;4976088;28;20559;-58
2022/06/01 05:42:05;;;;;;;21.47;15.40;;;;;;;;;;4975871;28;20431;-58
2022/06/01 05:44:31;;;;;;;21.93;14.87;;;;;;;;;;4976081;28;20492;-58
2022/06/01 05:46:57;;;;;;;17.43;15.33;;;;;;;;;;4976516;28;20433;-58
2022/06/01 05:49:24;;;;;;;18.63;14.70;;;;;;;;;;4975947;28;20421;-58
2022/06/01 05:51:50;;;;;;;18.33;13.70;;;;;;;;;;4975972;28;20489;-58
2022/06/01 05:54:16;;;;;;;19.17;15.40;;;;;;;;;;4976006;28;20519;-58
2022/06/01 05:56:42;;;;;;;17.73;14.97;;;;;;;;;;4976227;28;20413;-58
2022/06/01 05:59:08;;;;;;;18.13;14.00;;;;;;;;;;4976373;28;20420;-58
2022/06/01 06:01:34;;;;;;;19.73;14.93;;;;;;;;;;4976047;28;20432;-58
2022/06/01 06:04:00;;;;;;;18.40;14.83;;;;;;;;;;4975670;28;20405;-58
2022/06/01 06:06:26;;;;;;;18.67;15.30;;;;;;;;;;4977242;28;20403;-58
2022/06/01 06:08:56;;;;;;;21.57;16.07;;;;;;;;;;4976907;28;20524;-57
2022/06/01 06:11:22;;;;;;;18.40;14.80;;;;;;;;;;4976701;28;20765;-58
2022/06/01 06:13:48;;;;;;;17.90;14.30;;;;;;;;;;4975684;28;20467;-58
2022/06/01 06:16:15;;;;;;;20.77;15.70;;;;;;;;;;4975955;28;20409;-58
2022/06/01 06:18:41;;;;;;;22.90;17.40;;;;;;;;;;4976399;28;20492;-58
2022/06/01 06:21:08;;;;;;;21.40;16.57;;;;;;;;;;4975752;28;20450;-58
2022/06/01 06:23:34;;;;;;;21.80;15.67;;;;;;;;;;4975437;28;20507;-58
2022/06/01 06:26:01;;;;;;;18.53;14.53;;;;;;;;;;4975590;28;20405;-58
2022/06/01 06:28:27;;;;;;;20.50;15.83;;;;;;;;;;4976532;28;20409;-58
2022/06/01 06:30:54;;;;;;;20.63;14.60;;;;;;;;;;4977146;28;20397;-58
2022/06/01 06:33:20;;;;;;;22.20;14.57;;;;;;;;;;4976658;28;20483;-58
2022/06/01 06:35:46;;;;;;;16.07;13.97;;;;;;;;;;4976371;28;20394;-58
2022/06/01 06:38:12;;;;;;;22.40;14.43;;;;;;;;;;4977267;28;20926;-57
2022/06/01 06:40:38;;;;;;;22.00;14.97;;;;;;;;;;4976471;28;20449;-56
2022/06/01 06:43:05;;;;;;;18.10;13.90;;;;;;;;;;4979086;28;20891;-58
2022/06/01 06:45:31;;;;;;;16.37;13.70;;;;;;;;;;4978733;28;20381;-58
2022/06/01 06:47:57;;;;;;;18.13;13.73;;;;;;;;;;4977906;28;21025;-58
2022/06/01 06:50:23;;;;;;;15.53;13.27;;;;;;;;;;4976976;28;20444;-58
2022/06/01 06:52:49;;;;;;;15.50;12.77;;;;;;;;;;4976003;28;20457;-58
2022/06/01 06:55:15;;;;;;;15.80;12.70;;;;;;;;;;4977000;28;20405;-58
2022/06/01 06:57:43;;;;;;;15.90;12.60;;;;;;;;;;4975693;28;20398;-58
2022/06/01 07:00:10;;;;;;;18.20;13.70;;;;;;;;;;4975818;28;20431;-57
2022/06/01 07:02:36;;;;;;;14.00;11.70;;;;;;;;;;4975546;28;20405;-58
2022/06/01 07:05:02;;;;;;;15.20;12.43;;;;;;;;;;4977128;28;20416;-58
2022/06/01 07:07:28;;;;;;;15.33;11.03;;;;;;;;;;4976142;28;20980;-58
2022/06/01 07:09:54;;;;;;;13.57;11.93;;;;;;;;;;4975824;28;20485;-57
2022/06/01 07:12:20;;;;;;;12.27;10.80;;;;;;;;;;4975263;28;20527;-57
2022/06/01 07:14:46;;;;;;;14.47;11.33;;;;;;;;;;4975087;28;20406;-58
2022/06/01 07:17:12;;;;;;;16.23;10.67;;;;;;;;;;4974951;28;20410;-58
2022/06/01 07:19:38;;;;;;;11.80;10.47;;;;;;;;;;4975365;28;20476;-58
2022/06/01 07:22:04;;;;;;;20.67;9.57;;;;;;;;;;4975618;28;20460;-57
2022/06/01 07:24:30;;;;;;;9.03;8.10;;;;;;;;;;4974288;28;20494;-58
2022/06/01 07:26:56;;;;;;;7.93;7.10;;;;;;;;;;4957948;28;20450;-58
2022/06/01 07:29:22;;;;;;;7.80;7.00;;;;;;;;;;4975890;28;20461;-58
2022/06/01 07:31:50;;;;;;;7.73;5.93;;;;;;;;;;4981997;28;20407;-58
2022/06/01 07:34:16;;;;;;;9.07;6.73;;;;;;;;;;4977910;28;20553;-58
2022/06/01 07:36:43;;;;;;;11.30;6.23;;;;;;;;;;4976741;28;20381;-58
2022/06/01 07:44:49;;;;;;;10.27;5.53;;;;;;;;;;4976422;28;20434;-58
2022/06/01 07:47:15;;;;;;;4.43;4.03;;;;;;;;;;4976387;28;20465;-58
2022/06/01 07:49:41;;;;;;;3.73;3.43;;;;;;;;;;4976547;28;20424;-57
2022/06/01 07:52:11;;;;;;;5.10;3.60;;;;;;;;;;4976797;28;20405;-58
2022/06/01 07:54:37;;;;;;;5.20;4.20;;;;;;;;;;4976945;28;20525;-58
2022/06/01 07:57:04;;;;;;;4.37;3.10;;;;;;;;;;4977377;28;20488;-57
2022/06/01 07:59:29;;;;;;;4.40;3.13;;;;;;;;;;4975871;28;20497;-57
2022/06/01 08:01:55;;;;;;;3.07;2.87;;;;;;;;;;4977990;28;20417;-56
2022/06/01 08:04:21;;;;;;;7.63;3.40;;;;;;;;;;4977969;28;20389;-58
2022/06/01 08:06:47;;;;;;;4.07;3.60;;;;;;;;;;4978151;28;20388;-58
2022/06/01 08:09:13;;;;;;;4.97;3.30;;;;;;;;;;4978426;28;20470;-59
2022/06/01 08:14:24;;;;;;;4.17;3.77;;;;;;;;;;4978948;28;20402;-58
2022/06/01 08:16:50;;;;;;;3.40;3.07;;;;;;;;;;4978712;28;20775;-59
2022/06/01 08:19:17;;;;;;;6.20;3.17;;;;;;;;;;4979312;28;20395;-58
2022/06/01 08:21:43;;;;;;;3.30;3.10;;;;;;;;;;4979400;28;20892;-58
2022/06/01 08:24:10;;;;;;;11.50;3.90;;;;;;;;;;4980132;28;20425;-58
2022/06/01 08:26:36;;;;;;;3.87;3.57;;;;;;;;;;4979972;28;20915;-58
2022/06/01 08:29:05;;;;;;;3.63;3.43;;;;;;;;;;4979498;28;20425;-58
2022/06/01 08:31:32;;;;;;;6.10;3.03;;;;;;;;;;4979964;28;20476;-59
2022/06/01 08:33:59;;;;;;;3.77;3.20;;;;;;;;;;4980502;28;20549;-58
2022/06/01 08:36:25;;;;;;;3.13;2.93;;;;;;;;;;4981938;28;20416;-59
2022/06/01 08:38:51;;;;;;;3.50;3.20;;;;;;;;;;4980765;28;20519;-58
2022/06/01 08:41:19;;;;;;;3.40;3.10;;;;;;;;;;4982424;28;20456;-58
2022/06/01 08:43:49;;;;;;;3.57;3.23;;;;;;;;;;4982245;28;20405;-59
2022/06/01 08:46:15;;;;;;;6.47;3.00;;;;;;;;;;4982639;28;20411;-58
2022/06/01 08:48:42;;;;;;;3.30;3.00;;;;;;;;;;4981830;28;20404;-59
2022/06/01 08:51:08;;;;;;;4.90;3.17;;;;;;;;;;4982763;28;20401;-59
2022/06/01 08:53:34;;;;;;;3.87;3.30;;;;;;;;;;4982765;28;20460;-59
2022/06/01 08:56:09;;;;;;;5.80;2.70;;;;;;;;;;4982225;28;20409;-59
2022/06/01 08:58:40;;;;;;;2.93;2.70;;;;;;;;;;4981691;28;20685;-59
2022/06/01 09:01:11;;;;;;;3.67;3.37;;;;;;;;;;4981534;28;20415;-58
2022/06/01 09:03:41;;;;;;;3.83;3.10;;;;;;;;;;4981760;28;20464;-59
2022/06/01 09:06:13;;;;;;;3.27;2.80;;;;;;;;;;4981224;28;20408;-58
2022/06/01 09:08:40;;;;;;;3.23;2.90;;;;;;;;;;4981703;28;20496;-59
2022/06/01 09:11:07;;;;;;;3.30;3.00;;;;;;;;;;4981907;28;20422;-59
2022/06/01 09:13:44;;;;;;;3.30;3.00;;;;;;;;;;4980593;28;20520;-58
2022/06/01 09:16:14;;;;;;;2.67;2.50;;;;;;;;;;4982148;28;20404;-59
2022/06/01 09:18:45;;;;;;;4.43;3.23;;;;;;;;;;4981083;28;20460;-59
2022/06/01 09:24:10;;;;;;;3.63;2.73;;;;;;;;;;4981413;28;20503;-58
2022/06/01 09:26:48;;;;;;;4.70;2.67;;;;;;;;;;4979815;28;20888;-59
2022/06/01 09:29:19;;;;;;;3.20;2.40;;;;;;;;;;4979636;28;20423;-59
2022/06/01 09:31:47;;;;;;;3.03;2.57;;;;;;;;;;4979935;28;20402;-59
2022/06/01 09:34:25;;;;;;;3.47;2.60;;;;;;;;;;4979303;28;20807;-58
2022/06/01 09:36:56;;;;;;;4.40;2.40;;;;;;;;;;4978042;28;20420;-58
2022/06/01 09:39:22;;;;;;;4.80;2.57;;;;;;;;;;4979631;28;20475;-59
2022/06/01 09:41:48;;;;;;;2.90;2.10;;;;;;;;;;4978970;28;20488;-58
2022/06/01 09:44:21;;;;;;;3.20;2.50;;;;;;;;;;4980367;28;20455;-58
2022/06/01 09:46:47;;;;;;;3.13;2.33;;;;;;;;;;4987258;28;20423;-58
2022/06/01 09:49:24;;;;;;;4.87;2.53;;;;;;;;;;4980817;28;20423;-57
2022/06/01 09:51:54;;;;;;;2.20;2.00;;;;;;;;;;4983198;28;20437;-58
2022/06/01 09:54:23;;;;;;;2.13;1.97;;;;;;;;;;4980496;28;20459;-58
2022/06/01 09:56:50;;;;;;;4.73;2.23;;;;;;;;;;4979604;28;20481;-59
2022/06/01 10:07:48;;;;;;;4.70;2.10;;;;;;;;;;4977211;28;20434;-59
2022/06/01 10:10:26;;;;;;;2.03;1.93;;;;;;;;;;4976809;28;20475;-59
2022/06/01 10:12:53;;;;;;;2.03;1.83;;;;;;;;;;4980746;28;20967;-59
2022/06/01 10:15:25;;;;;;;1.70;1.60;;;;;;;;;;4978987;28;20502;-59
2022/06/01 10:18:01;;;;;;;1.63;1.53;;;;;;;;;;4975772;28;20428;-58
2022/06/01 10:20:32;;;;;;;3.33;1.90;;;;;;;;;;4975725;28;20825;-59
2022/06/01 10:23:06;;;;;;;3.20;1.83;;;;;;;;;;4977212;28;20411;-58
2022/06/01 10:25:47;;;;;;;2.47;2.27;;;;;;;;;;4976314;28;20464;-59
2022/06/01 10:28:15;;;;;;;2.37;2.20;;;;;;;;;;4976016;28;20969;-59
2022/06/01 10:30:44;;;;;;;2.13;1.93;;;;;;;;;;4976419;28;20516;-58
2022/06/01 10:33:39;;;;;;;1.93;1.60;;;;;;;;;;4976968;28;20464;-59
2022/06/01 10:36:12;;;;;;;1.80;1.70;;;;;;;;;;4954732;28;20427;-58
2022/06/01 10:38:41;;;;;;;1.63;1.53;;;;;;;;;;4975090;28;20417;-59
2022/06/01 10:41:14;;;;;;;5.63;1.60;;;;;;;;;;4975537;28;20415;-59
2022/06/01 10:43:45;;;;;;;2.50;2.00;;;;;;;;;;4975184;28;20447;-59
2022/06/01 10:46:23;;;;;;;2.17;2.07;;;;;;;;;;4975956;28;20403;-59
2022/06/01 10:48:55;;;;;;;2.40;2.20;;;;;;;;;;4977402;28;20450;-59
2022/06/01 10:51:27;;;;;;;2.13;1.97;;;;;;;;;;4977215;28;20771;-59
2022/06/01 10:54:03;;;;;;;4.67;2.30;;;;;;;;;;4976772;28;20462;-59
2022/06/01 10:56:30;;;;;;;2.13;1.70;;;;;;;;;;4977079;28;20412;-58
2022/06/01 10:58:59;;;;;;;3.70;1.70;;;;;;;;;;4976841;28;20426;-59
2022/06/01 11:01:25;;;;;;;1.70;1.60;;;;;;;;;;4976260;28;20507;-59
2022/06/01 11:03:51;;;;;;;1.80;1.70;;;;;;;;;;4976905;28;20437;-60
2022/06/01 11:06:35;;;;;;;1.77;1.33;;;;;;;;;;4977669;28;20229;-60
2022/06/01 11:09:17;;;;;;;1.90;1.70;;;;;;;;;;4972993;28;20443;-60
2022/06/01 11:11:49;;;;;;;1.47;1.30;;;;;;;;;;4972687;28;20408;-60
2022/06/01 11:14:15;;;;;;;1.10;1.00;;;;;;;;;;4976234;28;20830;-60
2022/06/01 11:17:08;;;;;;;1.87;1.77;;;;;;;;;;4977116;28;20492;-59
2022/06/01 11:19:56;;;;;;;1.77;1.57;;;;;;;;;;4974383;28;20732;-59
2022/06/01 11:22:34;;;;;;;1.50;1.10;;;;;;;;;;4973559;28;20799;-60
2022/06/01 11:25:14;;;;;;;1.67;1.10;;;;;;;;;;4974880;28;20427;-59
2022/06/01 11:27:43;;;;;;;3.37;1.20;;;;;;;;;;4977050;28;20409;-60
2022/06/01 11:30:17;;;;;;;2.00;1.50;;;;;;;;;;4976599;28;20862;-60
2022/06/01 11:33:02;;;;;;;2.17;1.30;;;;;;;;;;4976301;28;20448;-58
2022/06/01 11:35:43;;;;;;;1.43;1.33;;;;;;;;;;4977559;28;20535;-59
2022/06/01 11:38:15;;;;;;;8.40;1.50;;;;;;;;;;4977165;28;20783;-60
2022/06/01 11:40:50;;;;;;;3.27;1.53;;;;;;;;;;4975958;28;20425;-59
2022/06/01 11:43:32;;;;;;;2.90;1.50;;;;;;;;;;4975316;28;20411;-59
2022/06/01 11:46:03;;;;;;;2.83;2.00;;;;;;;;;;4976520;28;20412;-59
2022/06/01 11:48:34;;;;;;;2.70;2.00;;;;;;;;;;4978208;28;20409;-59
2022/06/01 11:51:17;;;;;;;2.70;2.00;;;;;;;;;;4980843;28;20492;-59
2022/06/01 11:53:43;;;;;;;3.60;2.10;;;;;;;;;;4980995;28;20451;-59
2022/06/01 11:56:15;;;;;;;2.20;2.00;;;;;;;;;;4981365;28;20414;-58
2022/06/01 11:58:45;;;;;;;2.23;1.97;;;;;;;;;;4982217;28;20445;-59
2022/06/01 12:01:16;;;;;;;2.23;2.03;;;;;;;;;;4981731;28;20883;-59
2022/06/01 12:03:53;;;;;;;1.87;1.77;;;;;;;;;;4982013;28;20894;-59
2022/06/01 12:06:52;;;;;;;2.53;2.10;;;;;;;;;;4984503;28;20408;-59
2022/06/01 12:09:29;;;;;;;3.13;2.23;;;;;;;;;;4932804;28;20490;-59
2022/06/01 12:11:55;;;;;;;3.20;2.33;;;;;;;;;;4984575;28;20818;-59
2022/06/01 12:14:26;;;;;;;3.73;2.57;;;;;;;;;;4984679;28;20463;-58
2022/06/01 12:17:11;;;;;;;3.73;2.70;;;;;;;;;;4984620;28;20461;-59
2022/06/01 12:19:37;;;;;;;2.30;2.20;;;;;;;;;;4983790;28;20424;-57
2022/06/01 12:22:03;;;;;;;6.97;2.67;;;;;;;;;;4978208;28;20410;-58
2022/06/01 12:30:05;;;;;;;3.77;3.47;;;;;;;;;;4976588;28;20418;-58
2022/06/01 12:32:51;;;;;;;2.93;2.83;;;;;;;;;;4976031;28;20944;-58
2022/06/01 12:35:18;;;;;;;3.53;3.20;;;;;;;;;;4976163;28;20475;-58
2022/06/01 12:38:05;;;;;;;4.73;2.83;;;;;;;;;;4976140;28;20451;-58
2022/06/01 12:40:31;;;;;;;3.50;3.20;;;;;;;;;;4979109;28;20405;-58
2022/06/01 12:43:00;;;;;;;5.60;2.90;;;;;;;;;;4980489;28;20430;-58
2022/06/01 12:45:28;;;;;;;3.47;2.40;;;;;;;;;;4979422;28;20406;-59
2022/06/01 12:47:57;;;;;;;4.37;2.30;;;;;;;;;;4977349;28;20409;-59
2022/06/01 12:50:24;;;;;;;2.13;2.03;;;;;;;;;;4976595;28;20428;-58
2022/06/01 12:53:08;;;;;;;2.57;2.00;;;;;;;;;;4976303;28;20543;-59
2022/06/01 12:55:34;;;;;;;3.97;1.70;;;;;;;;;;4977424;28;20492;-59
2022/06/01 12:58:00;;;;;;;2.57;1.97;;;;;;;;;;4977810;28;20437;-58
2022/06/01 13:00:30;;;;;;;2.13;1.63;;;;;;;;;;4977674;28;20424;-59
2022/06/01 13:02:56;;;;;;;2.60;1.50;;;;;;;;;;4977058;28;20405;-56
2022/06/01 13:05:24;;;;;;;2.23;1.83;;;;;;;;;;4979824;28;20487;-56
2022/06/01 13:07:52;;;;;;;4.23;2.00;;;;;;;;;;4978184;28;20411;-57
2022/06/01 13:10:28;;;;;;;4.33;1.90;;;;;;;;;;4977010;28;20436;-57
2022/06/01 13:13:04;;;;;;;2.53;2.27;;;;;;;;;;4978176;28;20825;-57
2022/06/01 13:15:30;;;;;;;2.63;2.40;;;;;;;;;;4978639;28;20409;-58
2022/06/01 13:17:58;;;;;;;3.50;2.53;;;;;;;;;;4979768;28;20405;-58
2022/06/01 13:20:37;;;;;;;3.93;2.80;;;;;;;;;;4978674;28;20437;-58
2022/06/01 13:23:06;;;;;;;3.80;2.70;;;;;;;;;;4975651;28;20501;-58
2022/06/01 13:25:33;;;;;;;3.97;3.10;;;;;;;;;;4975354;28;20409;-56
2022/06/01 13:27:59;;;;;;;4.70;3.57;;;;;;;;;;4975042;28;20415;-58
2022/06/01 13:30:27;;;;;;;3.77;3.57;;;;;;;;;;4974909;28;20423;-58
2022/06/01 13:32:53;;;;;;;3.17;2.97;;;;;;;;;;4975247;28;20428;-57
2022/06/01 13:35:22;;;;;;;6.80;3.37;;;;;;;;;;4975463;28;20441;-58
2022/06/01 13:37:51;;;;;;;4.17;3.77;;;;;;;;;;4975400;28;20380;-58
2022/06/01 13:40:31;;;;;;;3.77;3.57;;;;;;;;;;4975042;28;20412;-58
2022/06/01 13:43:03;;;;;;;6.80;3.50;;;;;;;;;;4974730;28;20457;-58
2022/06/01 13:45:35;;;;;;;4.33;3.93;;;;;;;;;;4975021;28;20410;-58
2022/06/01 13:48:02;;;;;;;6.70;4.30;;;;;;;;;;4975090;28;20387;-58
2022/06/01 13:50:30;;;;;;;4.23;3.93;;;;;;;;;;4974973;28;20403;-58
2022/06/01 13:52:56;;;;;;;4.60;4.20;;;;;;;;;;4974563;28;20518;-58
2022/06/01 13:55:29;;;;;;;4.10;3.90;;;;;;;;;;4975158;28;20792;-58
2022/06/01 13:58:05;;;;;;;4.03;3.77;;;;;;;;;;4974969;28;20428;-57
2022/06/01 14:00:48;;;;;;;5.33;4.07;;;;;;;;;;4974588;28;20431;-58
2022/06/01 14:03:16;;;;;;;4.07;3.60;;;;;;;;;;4974584;28;20379;-57
2022/06/01 14:05:46;;;;;;;3.67;3.47;;;;;;;;;;4974840;28;20740;-58
2022/06/01 14:08:13;;;;;;;6.57;3.87;;;;;;;;;;4974681;28;20908;-57
2022/06/01 14:10:43;;;;;;;4.93;4.10;;;;;;;;;;4974656;28;20894;-58
2022/06/01 14:13:10;;;;;;;6.10;4.70;;;;;;;;;;4974494;28;20453;-58
2022/06/01 14:15:37;;;;;;;7.30;5.20;;;;;;;;;;4974502;28;20428;-58
2022/06/01 14:18:06;;;;;;;6.30;5.80;;;;;;;;;;4974579;28;20795;-58
2022/06/01 14:20:32;;;;;;;9.93;6.00;;;;;;;;;;4974506;28;20482;-58
2022/06/01 14:22:58;;;;;;;7.70;7.00;;;;;;;;;;4974739;28;20845;-58
2022/06/01 14:30:53;;;;;;;8.50;7.70;;;;;;;;;;4974712;28;20457;-58
2022/06/01 14:33:19;;;;;;;8.70;7.90;;;;;;;;;;4973938;28;20463;-58
2022/06/01 14:35:45;;;;;;;8.43;7.73;;;;;;;;;;4974396;28;20416;-53
2022/06/01 14:38:11;;;;;;;10.07;7.70;;;;;;;;;;4973903;28;20388;-54
2022/06/01 14:40:37;;;;;;;8.00;7.30;;;;;;;;;;4971846;28;20596;-54
2022/06/01 14:43:04;;;;;;;8.00;7.33;;;;;;;;;;4971682;28;20401;-56
2022/06/01 14:45:30;;;;;;;7.20;6.60;;;;;;;;;;4972117;28;20420;-53
2022/06/01 14:47:56;;;;;;;7.70;7.07;;;;;;;;;;4971910;28;20375;-52
2022/06/01 14:50:22;;;;;;;8.37;7.67;;;;;;;;;;4973176;28;20483;-53
2022/06/01 14:52:48;;;;;;;7.60;7.00;;;;;;;;;;4973490;28;20551;-52
2022/06/01 14:55:14;;;;;;;7.00;6.33;;;;;;;;;;4973615;28;20838;-54
2022/06/01 14:57:40;;;;;;;7.77;6.97;;;;;;;;;;4973393;28;20405;-55
2022/06/01 15:00:07;;;;;;;8.20;6.90;;;;;;;;;;4973395;28;20432;-52
2022/06/01 15:02:33;;;;;;;7.77;7.17;;;;;;;;;;4973293;28;20440;-53
2022/06/01 15:05:01;;;;;;;8.27;7.57;;;;;;;;;;4973469;28;20786;-53
2022/06/01 15:07:27;;;;;;;7.07;6.57;;;;;;;;;;4973451;28;20465;-53
2022/06/01 15:09:53;;;;;;;7.80;7.10;;;;;;;;;;4973228;28;20483;-54
2022/06/01 15:12:19;;;;;;;7.70;7.00;;;;;;;;;;4973280;28;20890;-55
2022/06/01 15:14:45;;;;;;;9.10;8.33;;;;;;;;;;4973202;28;20894;-54
2022/06/01 15:17:16;;;;;;;7.77;7.07;;;;;;;;;;4973510;28;20439;-53
2022/06/01 15:19:43;;;;;;;12.30;7.50;;;;;;;;;;4973069;28;20405;-54